sensor_id;sensor_type;location;lat;lon;timestamp;P1;durP1;ratioP1;P2;durP2;ratioP2
62957;SDS011;49056;48.352;10.926;2022-07-12T00:03:55;1.87;;;0.83;;
62957;SDS011;49056;48.352;10.926;2022-07-12T00:09:15;1.30;;;0.93;;
62957;SDS011;49056;48.352;10.926;2022-07-12T00:14:36;1.17;;;0.75;;
62957;SDS011;49056;48.352;10.926;2022-07-12T00:19:56;2.77;;;1.23;;
62957;SDS011;49056;48.352;10.926;2022-07-12T00:25:16;1.45;;;0.88;;
62957;SDS011;49056;48.352;10.926;2022-07-12T00:30:37;1.43;;;1.00;;
62957;SDS011;49056;48.352;10.926;2022-07-12T00:35:57;1.50;;;0.70;;
62957;SDS011;49056;48.352;10.926;2022-07-12T00:41:17;1.87;;;1.02;;
62957;SDS011;49056;48.352;10.926;2022-07-12T00:46:38;2.40;;;1.17;;
62957;SDS011;49056;48.352;10.926;2022-07-12T00:51:58;1.70;;;1.10;;
62957;SDS011;49056;48.352;10.926;2022-07-12T00:57:19;1.33;;;0.83;;
62957;SDS011;49056;48.352;10.926;2022-07-12T01:02:40;2.28;;;1.50;;
62957;SDS011;49056;48.352;10.926;2022-07-12T01:08:03;1.20;;;0.90;;
62957;SDS011;49056;48.352;10.926;2022-07-12T01:13:24;2.03;;;1.05;;
62957;SDS011;49056;48.352;10.926;2022-07-12T01:18:44;1.93;;;1.00;;
62957;SDS011;49056;48.352;10.926;2022-07-12T01:24:05;1.83;;;1.10;;
62957;SDS011;49056;48.352;10.926;2022-07-12T01:29:26;1.35;;;0.98;;
62957;SDS011;49056;48.352;10.926;2022-07-12T01:34:47;1.63;;;1.03;;
62957;SDS011;49056;48.352;10.926;2022-07-12T01:40:11;1.67;;;1.02;;
62957;SDS011;49056;48.352;10.926;2022-07-12T01:45:32;1.30;;;0.93;;
62957;SDS011;49056;48.352;10.926;2022-07-12T01:50:54;2.27;;;1.13;;
62957;SDS011;49056;48.352;10.926;2022-07-12T01:56:14;1.62;;;1.10;;
62957;SDS011;49056;48.352;10.926;2022-07-12T02:01:35;1.33;;;0.88;;
62957;SDS011;49056;48.352;10.926;2022-07-12T02:06:57;1.27;;;1.00;;
62957;SDS011;49056;48.352;10.926;2022-07-12T02:12:17;1.92;;;1.10;;
62957;SDS011;49056;48.352;10.926;2022-07-12T02:17:38;1.37;;;0.97;;
62957;SDS011;49056;48.352;10.926;2022-07-12T02:22:58;1.92;;;1.05;;
62957;SDS011;49056;48.352;10.926;2022-07-12T02:28:19;1.57;;;0.90;;
62957;SDS011;49056;48.352;10.926;2022-07-12T02:33:39;1.63;;;0.87;;
62957;SDS011;49056;48.352;10.926;2022-07-12T02:39:00;1.45;;;0.82;;
62957;SDS011;49056;48.352;10.926;2022-07-12T02:44:23;1.08;;;0.73;;
62957;SDS011;49056;48.352;10.926;2022-07-12T02:49:44;2.10;;;1.07;;
62957;SDS011;49056;48.352;10.926;2022-07-12T02:55:04;2.13;;;1.30;;
62957;SDS011;49056;48.352;10.926;2022-07-12T03:00:24;1.23;;;0.95;;
62957;SDS011;49056;48.352;10.926;2022-07-12T03:05:45;1.35;;;0.73;;
62957;SDS011;49056;48.352;10.926;2022-07-12T03:11:05;2.03;;;1.15;;
62957;SDS011;49056;48.352;10.926;2022-07-12T03:16:26;1.10;;;0.80;;
62957;SDS011;49056;48.352;10.926;2022-07-12T03:21:46;1.55;;;1.08;;
62957;SDS011;49056;48.352;10.926;2022-07-12T03:27:06;1.53;;;0.97;;
62957;SDS011;49056;48.352;10.926;2022-07-12T03:32:27;1.67;;;1.00;;
62957;SDS011;49056;48.352;10.926;2022-07-12T03:37:51;2.05;;;1.33;;
62957;SDS011;49056;48.352;10.926;2022-07-12T03:43:11;2.62;;;1.37;;
62957;SDS011;49056;48.352;10.926;2022-07-12T03:48:32;1.77;;;0.87;;
62957;SDS011;49056;48.352;10.926;2022-07-12T03:53:52;1.70;;;1.12;;
62957;SDS011;49056;48.352;10.926;2022-07-12T03:59:13;1.50;;;0.93;;
62957;SDS011;49056;48.352;10.926;2022-07-12T04:04:33;1.60;;;0.80;;
62957;SDS011;49056;48.352;10.926;2022-07-12T04:09:54;2.35;;;1.05;;
62957;SDS011;49056;48.352;10.926;2022-07-12T04:15:15;3.05;;;1.15;;
62957;SDS011;49056;48.352;10.926;2022-07-12T04:20:35;2.10;;;1.33;;
62957;SDS011;49056;48.352;10.926;2022-07-12T04:25:56;1.40;;;0.90;;
62957;SDS011;49056;48.352;10.926;2022-07-12T04:31:16;1.55;;;0.88;;
62957;SDS011;49056;48.352;10.926;2022-07-12T04:36:37;1.70;;;0.90;;
62957;SDS011;49056;48.352;10.926;2022-07-12T04:41:57;1.03;;;0.77;;
62957;SDS011;49056;48.352;10.926;2022-07-12T04:47:17;2.00;;;1.27;;
62957;SDS011;49056;48.352;10.926;2022-07-12T04:52:38;1.67;;;0.90;;
62957;SDS011;49056;48.352;10.926;2022-07-12T04:57:58;1.83;;;1.13;;
62957;SDS011;49056;48.352;10.926;2022-07-12T05:03:18;1.42;;;0.90;;
62957;SDS011;49056;48.352;10.926;2022-07-12T05:08:39;1.45;;;0.90;;
62957;SDS011;49056;48.352;10.926;2022-07-12T05:13:59;2.00;;;0.97;;
62957;SDS011;49056;48.352;10.926;2022-07-12T05:19:20;2.53;;;0.70;;
62957;SDS011;49056;48.352;10.926;2022-07-12T05:24:41;1.92;;;1.08;;
62957;SDS011;49056;48.352;10.926;2022-07-12T05:30:02;1.90;;;0.75;;
62957;SDS011;49056;48.352;10.926;2022-07-12T05:35:23;1.95;;;0.98;;
62957;SDS011;49056;48.352;10.926;2022-07-12T05:40:43;1.60;;;0.90;;
62957;SDS011;49056;48.352;10.926;2022-07-12T05:46:04;1.40;;;0.83;;
62957;SDS011;49056;48.352;10.926;2022-07-12T05:51:24;3.53;;;1.15;;
62957;SDS011;49056;48.352;10.926;2022-07-12T05:57:03;1.40;;;0.93;;
62957;SDS011;49056;48.352;10.926;2022-07-12T06:02:24;2.47;;;0.97;;
62957;SDS011;49056;48.352;10.926;2022-07-12T06:07:44;1.48;;;1.02;;
62957;SDS011;49056;48.352;10.926;2022-07-12T06:13:05;1.80;;;0.93;;
62957;SDS011;49056;48.352;10.926;2022-07-12T06:18:25;2.03;;;0.90;;
62957;SDS011;49056;48.352;10.926;2022-07-12T06:23:46;3.33;;;1.10;;
62957;SDS011;49056;48.352;10.926;2022-07-12T06:29:06;2.40;;;1.27;;
62957;SDS011;49056;48.352;10.926;2022-07-12T06:34:26;1.80;;;1.20;;
62957;SDS011;49056;48.352;10.926;2022-07-12T06:39:47;1.33;;;0.77;;
62957;SDS011;49056;48.352;10.926;2022-07-12T06:45:08;1.00;;;0.90;;
62957;SDS011;49056;48.352;10.926;2022-07-12T06:50:29;1.55;;;1.08;;
62957;SDS011;49056;48.352;10.926;2022-07-12T06:55:49;1.77;;;1.00;;
62957;SDS011;49056;48.352;10.926;2022-07-12T07:01:10;1.85;;;0.85;;
62957;SDS011;49056;48.352;10.926;2022-07-12T07:06:31;1.87;;;1.00;;
62957;SDS011;49056;48.352;10.926;2022-07-12T07:11:52;2.20;;;0.93;;
62957;SDS011;49056;48.352;10.926;2022-07-12T07:17:14;1.73;;;0.73;;
62957;SDS011;49056;48.352;10.926;2022-07-12T07:22:36;2.55;;;1.02;;
62957;SDS011;49056;48.352;10.926;2022-07-12T07:27:57;1.08;;;0.68;;
62957;SDS011;49056;48.352;10.926;2022-07-12T07:33:18;1.55;;;0.50;;
62957;SDS011;49056;48.352;10.926;2022-07-12T07:38:38;0.50;;;0.40;;
62957;SDS011;49056;48.352;10.926;2022-07-12T07:43:58;0.93;;;0.47;;
62957;SDS011;49056;48.352;10.926;2022-07-12T07:49:19;0.80;;;0.50;;
62957;SDS011;49056;48.352;10.926;2022-07-12T07:54:39;1.30;;;0.68;;
62957;SDS011;49056;48.352;10.926;2022-07-12T07:59:59;1.33;;;0.55;;
62957;SDS011;49056;48.352;10.926;2022-07-12T08:05:20;1.30;;;0.52;;
62957;SDS011;49056;48.352;10.926;2022-07-12T08:10:40;1.33;;;0.60;;
62957;SDS011;49056;48.352;10.926;2022-07-12T08:16:00;0.28;;;0.25;;
62957;SDS011;49056;48.352;10.926;2022-07-12T08:21:21;0.43;;;0.40;;
62957;SDS011;49056;48.352;10.926;2022-07-12T08:26:41;1.10;;;0.50;;
62957;SDS011;49056;48.352;10.926;2022-07-12T08:32:01;1.25;;;0.50;;
62957;SDS011;49056;48.352;10.926;2022-07-12T08:37:22;0.70;;;0.20;;
62957;SDS011;49056;48.352;10.926;2022-07-12T08:42:43;0.67;;;0.30;;
62957;SDS011;49056;48.352;10.926;2022-07-12T08:48:03;0.67;;;0.40;;
62957;SDS011;49056;48.352;10.926;2022-07-12T08:53:24;1.00;;;0.50;;
62957;SDS011;49056;48.352;10.926;2022-07-12T08:58:44;2.03;;;0.30;;
62957;SDS011;49056;48.352;10.926;2022-07-12T09:04:11;0.60;;;0.40;;
62957;SDS011;49056;48.352;10.926;2022-07-12T09:09:32;0.25;;;0.25;;
62957;SDS011;49056;48.352;10.926;2022-07-12T09:14:53;0.40;;;0.20;;
62957;SDS011;49056;48.352;10.926;2022-07-12T09:20:14;0.97;;;0.20;;
62957;SDS011;49056;48.352;10.926;2022-07-12T09:25:35;0.73;;;0.25;;
62957;SDS011;49056;48.352;10.926;2022-07-12T09:30:56;0.32;;;0.25;;
62957;SDS011;49056;48.352;10.926;2022-07-12T09:36:21;0.60;;;0.40;;
62957;SDS011;49056;48.352;10.926;2022-07-12T09:47:04;0.52;;;0.25;;
62957;SDS011;49056;48.352;10.926;2022-07-12T09:52:27;0.35;;;0.20;;
62957;SDS011;49056;48.352;10.926;2022-07-12T09:57:55;0.52;;;0.20;;
62957;SDS011;49056;48.352;10.926;2022-07-12T10:09:58;0.35;;;0.20;;
62957;SDS011;49056;48.352;10.926;2022-07-12T10:15:22;0.30;;;0.10;;
62957;SDS011;49056;48.352;10.926;2022-07-12T10:20:46;0.73;;;0.28;;
62957;SDS011;49056;48.352;10.926;2022-07-12T10:31:37;0.10;;;0.10;;
62957;SDS011;49056;48.352;10.926;2022-07-12T10:42:19;0.45;;;0.28;;
62957;SDS011;49056;48.352;10.926;2022-07-12T10:47:53;0.50;;;0.40;;
62957;SDS011;49056;48.352;10.926;2022-07-12T10:53:24;0.22;;;0.22;;
62957;SDS011;49056;48.352;10.926;2022-07-12T11:04:10;0.52;;;0.22;;
62957;SDS011;49056;48.352;10.926;2022-07-12T11:09:31;0.45;;;0.22;;
62957;SDS011;49056;48.352;10.926;2022-07-12T11:14:51;0.98;;;0.30;;
62957;SDS011;49056;48.352;10.926;2022-07-12T11:20:13;0.10;;;0.10;;
62957;SDS011;49056;48.352;10.926;2022-07-12T11:25:33;0.52;;;0.25;;
62957;SDS011;49056;48.352;10.926;2022-07-12T11:31:00;0.85;;;0.20;;
62957;SDS011;49056;48.352;10.926;2022-07-12T11:36:21;0.20;;;0.20;;
62957;SDS011;49056;48.352;10.926;2022-07-12T11:41:55;2.17;;;0.22;;
62957;SDS011;49056;48.352;10.926;2022-07-12T11:47:17;0.32;;;0.20;;
62957;SDS011;49056;48.352;10.926;2022-07-12T11:52:37;0.43;;;0.20;;
62957;SDS011;49056;48.352;10.926;2022-07-12T11:58:04;0.10;;;0.10;;
62957;SDS011;49056;48.352;10.926;2022-07-12T12:03:25;1.48;;;0.30;;
62957;SDS011;49056;48.352;10.926;2022-07-12T12:08:45;0.30;;;0.30;;
62957;SDS011;49056;48.352;10.926;2022-07-12T12:14:08;0.10;;;0.10;;
62957;SDS011;49056;48.352;10.926;2022-07-12T12:19:28;0.40;;;0.20;;
62957;SDS011;49056;48.352;10.926;2022-07-12T12:24:59;0.30;;;0.20;;
62957;SDS011;49056;48.352;10.926;2022-07-12T12:30:20;0.10;;;0.10;;
62957;SDS011;49056;48.352;10.926;2022-07-12T12:35:40;0.20;;;0.20;;
62957;SDS011;49056;48.352;10.926;2022-07-12T12:41:01;0.20;;;0.17;;
62957;SDS011;49056;48.352;10.926;2022-07-12T12:46:22;0.10;;;0.10;;
62957;SDS011;49056;48.352;10.926;2022-07-12T12:51:57;0.20;;;0.20;;
62957;SDS011;49056;48.352;10.926;2022-07-12T12:57:18;1.45;;;0.45;;
62957;SDS011;49056;48.352;10.926;2022-07-12T13:02:39;0.20;;;0.10;;
62957;SDS011;49056;48.352;10.926;2022-07-12T13:08:00;0.20;;;0.20;;
62957;SDS011;49056;48.352;10.926;2022-07-12T13:13:20;0.47;;;0.30;;
62957;SDS011;49056;48.352;10.926;2022-07-12T13:18:41;0.20;;;0.20;;
62957;SDS011;49056;48.352;10.926;2022-07-12T13:24:01;1.42;;;0.30;;
62957;SDS011;49056;48.352;10.926;2022-07-12T13:29:21;0.20;;;0.20;;
62957;SDS011;49056;48.352;10.926;2022-07-12T13:34:42;0.30;;;0.22;;
62957;SDS011;49056;48.352;10.926;2022-07-12T13:40:03;0.90;;;0.25;;
62957;SDS011;49056;48.352;10.926;2022-07-12T13:45:36;0.13;;;0.10;;
62957;SDS011;49056;48.352;10.926;2022-07-12T13:50:57;0.20;;;0.20;;
62957;SDS011;49056;48.352;10.926;2022-07-12T13:56:17;0.50;;;0.30;;
62957;SDS011;49056;48.352;10.926;2022-07-12T14:01:39;0.35;;;0.30;;
62957;SDS011;49056;48.352;10.926;2022-07-12T14:07:00;0.53;;;0.53;;
62957;SDS011;49056;48.352;10.926;2022-07-12T14:12:21;0.95;;;0.30;;
62957;SDS011;49056;48.352;10.926;2022-07-12T14:17:44;0.40;;;0.30;;
62957;SDS011;49056;48.352;10.926;2022-07-12T14:23:05;0.55;;;0.22;;
62957;SDS011;49056;48.352;10.926;2022-07-12T14:28:29;3.83;;;0.47;;
62957;SDS011;49056;48.352;10.926;2022-07-12T14:33:50;0.40;;;0.20;;
62957;SDS011;49056;48.352;10.926;2022-07-12T14:39:11;0.10;;;0.10;;
62957;SDS011;49056;48.352;10.926;2022-07-12T14:44:31;1.58;;;0.20;;
62957;SDS011;49056;48.352;10.926;2022-07-12T14:49:51;0.50;;;0.20;;
62957;SDS011;49056;48.352;10.926;2022-07-12T14:55:14;0.20;;;0.10;;
62957;SDS011;49056;48.352;10.926;2022-07-12T15:00:37;0.17;;;0.15;;
62957;SDS011;49056;48.352;10.926;2022-07-12T15:05:57;0.10;;;0.10;;
62957;SDS011;49056;48.352;10.926;2022-07-12T15:11:18;1.05;;;0.62;;
62957;SDS011;49056;48.352;10.926;2022-07-12T15:16:38;0.20;;;0.15;;
62957;SDS011;49056;48.352;10.926;2022-07-12T15:21:59;0.40;;;0.20;;
62957;SDS011;49056;48.352;10.926;2022-07-12T15:27:19;0.50;;;0.30;;
62957;SDS011;49056;48.352;10.926;2022-07-12T15:32:39;0.50;;;0.20;;
62957;SDS011;49056;48.352;10.926;2022-07-12T15:38:00;0.15;;;0.13;;
62957;SDS011;49056;48.352;10.926;2022-07-12T15:43:20;0.10;;;0.10;;
62957;SDS011;49056;48.352;10.926;2022-07-12T15:48:40;0.45;;;0.15;;
62957;SDS011;49056;48.352;10.926;2022-07-12T15:54:01;0.20;;;0.20;;
62957;SDS011;49056;48.352;10.926;2022-07-12T15:59:21;0.20;;;0.20;;
62957;SDS011;49056;48.352;10.926;2022-07-12T16:04:42;0.40;;;0.30;;
62957;SDS011;49056;48.352;10.926;2022-07-12T16:10:02;0.40;;;0.20;;
62957;SDS011;49056;48.352;10.926;2022-07-12T16:15:23;0.37;;;0.30;;
62957;SDS011;49056;48.352;10.926;2022-07-12T16:20:43;0.77;;;0.30;;
62957;SDS011;49056;48.352;10.926;2022-07-12T16:26:04;1.60;;;0.40;;
62957;SDS011;49056;48.352;10.926;2022-07-12T16:31:25;9.63;;;1.48;;
62957;SDS011;49056;48.352;10.926;2022-07-12T16:36:45;2.47;;;0.50;;
62957;SDS011;49056;48.352;10.926;2022-07-12T16:42:07;4.75;;;0.75;;
62957;SDS011;49056;48.352;10.926;2022-07-12T16:47:27;3.43;;;0.40;;
62957;SDS011;49056;48.352;10.926;2022-07-12T16:52:48;2.05;;;0.37;;
62957;SDS011;49056;48.352;10.926;2022-07-12T16:58:11;1.40;;;0.23;;
62957;SDS011;49056;48.352;10.926;2022-07-12T17:03:34;0.35;;;0.10;;
62957;SDS011;49056;48.352;10.926;2022-07-12T17:21:59;0.30;;;0.20;;
62957;SDS011;49056;48.352;10.926;2022-07-12T17:33:53;0.10;;;0.10;;
62957;SDS011;49056;48.352;10.926;2022-07-12T17:58:15;2.30;;;0.22;;
62957;SDS011;49056;48.352;10.926;2022-07-12T18:03:54;0.40;;;0.15;;
62957;SDS011;49056;48.352;10.926;2022-07-12T18:09:16;0.30;;;0.17;;
62957;SDS011;49056;48.352;10.926;2022-07-12T18:14:36;6.43;;;0.85;;
62957;SDS011;49056;48.352;10.926;2022-07-12T18:20:03;1.50;;;0.25;;
62957;SDS011;49056;48.352;10.926;2022-07-12T18:25:24;1.27;;;0.40;;
62957;SDS011;49056;48.352;10.926;2022-07-12T18:30:45;0.57;;;0.30;;
62957;SDS011;49056;48.352;10.926;2022-07-12T18:36:07;1.00;;;0.25;;
62957;SDS011;49056;48.352;10.926;2022-07-12T18:41:28;0.47;;;0.30;;
62957;SDS011;49056;48.352;10.926;2022-07-12T18:46:50;0.90;;;0.40;;
62957;SDS011;49056;48.352;10.926;2022-07-12T18:52:11;1.48;;;0.30;;
62957;SDS011;49056;48.352;10.926;2022-07-12T18:57:33;0.82;;;0.32;;
62957;SDS011;49056;48.352;10.926;2022-07-12T19:02:54;1.50;;;0.40;;
62957;SDS011;49056;48.352;10.926;2022-07-12T19:08:15;0.13;;;0.13;;
62957;SDS011;49056;48.352;10.926;2022-07-12T19:13:35;0.77;;;0.35;;
62957;SDS011;49056;48.352;10.926;2022-07-12T19:18:56;0.70;;;0.30;;
62957;SDS011;49056;48.352;10.926;2022-07-12T19:24:16;0.88;;;0.20;;
62957;SDS011;49056;48.352;10.926;2022-07-12T19:29:37;2.57;;;0.50;;
62957;SDS011;49056;48.352;10.926;2022-07-12T19:34:57;0.47;;;0.32;;
62957;SDS011;49056;48.352;10.926;2022-07-12T19:40:18;1.10;;;0.50;;
62957;SDS011;49056;48.352;10.926;2022-07-12T19:45:38;0.22;;;0.13;;
62957;SDS011;49056;48.352;10.926;2022-07-12T19:50:59;0.30;;;0.30;;
62957;SDS011;49056;48.352;10.926;2022-07-12T19:56:19;0.30;;;0.20;;
62957;SDS011;49056;48.352;10.926;2022-07-12T20:01:39;0.20;;;0.20;;
62957;SDS011;49056;48.352;10.926;2022-07-12T20:07:03;0.40;;;0.28;;
62957;SDS011;49056;48.352;10.926;2022-07-12T20:12:24;0.25;;;0.20;;
62957;SDS011;49056;48.352;10.926;2022-07-12T20:17:44;0.40;;;0.30;;
62957;SDS011;49056;48.352;10.926;2022-07-12T20:23:05;0.30;;;0.13;;
62957;SDS011;49056;48.352;10.926;2022-07-12T20:28:25;0.57;;;0.30;;
62957;SDS011;49056;48.352;10.926;2022-07-12T20:33:49;1.50;;;0.40;;
62957;SDS011;49056;48.352;10.926;2022-07-12T20:39:29;0.50;;;0.40;;
62957;SDS011;49056;48.352;10.926;2022-07-12T20:44:49;0.57;;;0.40;;
62957;SDS011;49056;48.352;10.926;2022-07-12T20:50:09;2.13;;;0.50;;
62957;SDS011;49056;48.352;10.926;2022-07-12T20:55:30;0.30;;;0.30;;
62957;SDS011;49056;48.352;10.926;2022-07-12T21:00:51;1.20;;;0.65;;
62957;SDS011;49056;48.352;10.926;2022-07-12T21:06:12;0.25;;;0.25;;
62957;SDS011;49056;48.352;10.926;2022-07-12T21:11:33;1.03;;;0.30;;
62957;SDS011;49056;48.352;10.926;2022-07-12T21:16:54;1.62;;;0.65;;
62957;SDS011;49056;48.352;10.926;2022-07-12T21:22:15;0.43;;;0.30;;
62957;SDS011;49056;48.352;10.926;2022-07-12T21:27:37;0.65;;;0.30;;
62957;SDS011;49056;48.352;10.926;2022-07-12T21:32:57;0.55;;;0.40;;
62957;SDS011;49056;48.352;10.926;2022-07-12T21:38:18;0.30;;;0.20;;
62957;SDS011;49056;48.352;10.926;2022-07-12T21:43:38;0.50;;;0.40;;
62957;SDS011;49056;48.352;10.926;2022-07-12T21:48:59;0.75;;;0.37;;
62957;SDS011;49056;48.352;10.926;2022-07-12T21:54:19;0.70;;;0.30;;
62957;SDS011;49056;48.352;10.926;2022-07-12T21:59:40;0.75;;;0.37;;
62957;SDS011;49056;48.352;10.926;2022-07-12T22:05:00;0.90;;;0.43;;
62957;SDS011;49056;48.352;10.926;2022-07-12T22:10:22;0.50;;;0.20;;
62957;SDS011;49056;48.352;10.926;2022-07-12T22:15:42;0.37;;;0.37;;
62957;SDS011;49056;48.352;10.926;2022-07-12T22:21:03;0.30;;;0.30;;
62957;SDS011;49056;48.352;10.926;2022-07-12T22:26:23;0.57;;;0.40;;
62957;SDS011;49056;48.352;10.926;2022-07-12T22:31:44;0.70;;;0.40;;
62957;SDS011;49056;48.352;10.926;2022-07-12T22:37:04;0.63;;;0.37;;
62957;SDS011;49056;48.352;10.926;2022-07-12T22:42:25;0.50;;;0.50;;
62957;SDS011;49056;48.352;10.926;2022-07-12T22:47:45;0.35;;;0.30;;
62957;SDS011;49056;48.352;10.926;2022-07-12T22:53:06;0.63;;;0.50;;
62957;SDS011;49056;48.352;10.926;2022-07-12T22:58:26;0.57;;;0.40;;
62957;SDS011;49056;48.352;10.926;2022-07-12T23:03:47;0.40;;;0.30;;
62957;SDS011;49056;48.352;10.926;2022-07-12T23:09:07;0.53;;;0.37;;
62957;SDS011;49056;48.352;10.926;2022-07-12T23:14:28;1.40;;;0.50;;
62957;SDS011;49056;48.352;10.926;2022-07-12T23:19:48;0.80;;;0.50;;
62957;SDS011;49056;48.352;10.926;2022-07-12T23:25:09;1.12;;;0.60;;
62957;SDS011;49056;48.352;10.926;2022-07-12T23:30:29;0.80;;;0.30;;
62957;SDS011;49056;48.352;10.926;2022-07-12T23:35:49;0.73;;;0.50;;
62957;SDS011;49056;48.352;10.926;2022-07-12T23:41:10;0.90;;;0.60;;
62957;SDS011;49056;48.352;10.926;2022-07-12T23:46:30;0.73;;;0.43;;
62957;SDS011;49056;48.352;10.926;2022-07-12T23:51:51;0.90;;;0.50;;
62957;SDS011;49056;48.352;10.926;2022-07-12T23:57:12;1.17;;;0.52;;
